createdAt,value
2023-02-15T00:00:09.339Z,4.30
2023-02-15T00:02:36.228Z,4.20
2023-02-15T00:05:03.370Z,4.20
2023-02-15T00:07:30.298Z,4.20
2023-02-15T00:09:57.266Z,4.20
2023-02-15T00:12:24.209Z,4.20
2023-02-15T00:14:51.121Z,4.10
2023-02-15T00:17:18.114Z,4.00
2023-02-15T00:19:45.025Z,4.00
2023-02-15T00:22:11.963Z,3.90
2023-02-15T00:24:38.906Z,3.90
2023-02-15T00:27:05.855Z,3.90
2023-02-15T00:29:32.889Z,3.90
2023-02-15T00:31:59.829Z,3.80
2023-02-15T00:34:28.564Z,3.80
2023-02-15T00:36:57.557Z,3.80
2023-02-15T00:39:25.272Z,3.70
2023-02-15T00:41:52.271Z,3.50
2023-02-15T00:44:19.230Z,3.40
2023-02-15T00:46:46.164Z,3.50
2023-02-15T00:49:13.074Z,3.50
2023-02-15T00:51:40.468Z,3.50
2023-02-15T00:54:07.827Z,3.50
2023-02-15T00:56:34.832Z,3.40
2023-02-15T00:59:01.766Z,3.40
2023-02-15T01:01:28.841Z,3.40
2023-02-15T01:03:55.799Z,3.30
2023-02-15T01:06:22.732Z,3.30
2023-02-15T01:08:49.708Z,3.30
2023-02-15T01:11:25.529Z,3.20
2023-02-15T01:13:58.360Z,3.20
2023-02-15T01:16:29.048Z,3.00
2023-02-15T01:18:56.418Z,2.90
2023-02-15T01:21:25.840Z,2.80
2023-02-15T01:23:52.804Z,2.70
2023-02-15T01:26:20.081Z,2.60
2023-02-15T01:28:47.471Z,2.70
2023-02-15T01:31:19.127Z,2.70
2023-02-15T01:33:47.917Z,2.70
2023-02-15T01:36:15.530Z,2.70
2023-02-15T01:38:42.773Z,2.70
2023-02-15T01:41:25.503Z,2.70
2023-02-15T01:44:00.895Z,2.80
2023-02-15T01:46:38.243Z,2.80
2023-02-15T01:49:24.425Z,2.80
2023-02-15T01:51:53.762Z,2.80
2023-02-15T01:54:33.883Z,2.70
2023-02-15T01:57:10.615Z,2.60
2023-02-15T01:59:40.577Z,2.60
2023-02-15T02:02:10.499Z,2.70
2023-02-15T02:04:50.192Z,2.70
2023-02-15T02:07:24.990Z,2.70
2023-02-15T02:09:52.211Z,2.70
2023-02-15T02:12:22.078Z,2.80
2023-02-15T02:14:50.811Z,2.70
2023-02-15T02:17:35.672Z,2.70
2023-02-15T02:20:27.406Z,2.70
2023-02-15T02:23:13.993Z,2.70
2023-02-15T02:26:29.414Z,2.70
2023-02-15T02:29:23.260Z,2.70
2023-02-15T02:32:23.539Z,2.60
2023-02-15T02:35:08.795Z,2.60
2023-02-15T02:38:12.781Z,2.60
2023-02-15T02:41:33.758Z,2.60
2023-02-15T02:44:18.369Z,2.50
2023-02-15T02:46:54.719Z,2.40
2023-02-15T02:49:41.241Z,2.40
2023-02-15T02:52:49.943Z,2.40
2023-02-15T02:55:22.458Z,2.30
2023-02-15T02:58:18.705Z,2.20
2023-02-15T03:00:56.624Z,2.20
2023-02-15T03:03:45.520Z,2.20
2023-02-15T03:06:45.585Z,2.20
2023-02-15T03:09:23.471Z,2.20
2023-02-15T03:11:50.953Z,2.00
2023-02-15T03:14:19.957Z,2.10
2023-02-15T03:16:50.278Z,2.10
2023-02-15T03:19:31.990Z,2.10
2023-02-15T03:22:10.065Z,2.10
2023-02-15T03:24:50.610Z,2.00
2023-02-15T03:27:23.843Z,1.90
2023-02-15T03:29:56.240Z,1.90
2023-02-15T03:32:26.221Z,1.80
2023-02-15T03:34:53.118Z,1.80
2023-02-15T03:37:53.033Z,1.80
2023-02-15T03:40:46.183Z,1.80
2023-02-15T03:43:33.139Z,1.80
2023-02-15T03:46:12.101Z,1.70
2023-02-15T03:48:45.406Z,1.70
2023-02-15T03:51:34.953Z,1.70
2023-02-15T03:54:40.352Z,1.60
2023-02-15T03:57:34.506Z,1.50
2023-02-15T04:00:29.352Z,1.40
2023-02-15T04:03:23.999Z,1.50
2023-02-15T04:05:51.054Z,1.50
2023-02-15T04:08:17.873Z,1.40
2023-02-15T04:10:53.539Z,1.30
2023-02-15T04:13:22.353Z,1.30
2023-02-15T04:16:05.506Z,1.40
2023-02-15T04:19:00.270Z,1.50
2023-02-15T04:21:49.046Z,1.60
2023-02-15T04:24:35.604Z,1.60
2023-02-15T04:27:04.171Z,1.60
2023-02-15T04:29:32.187Z,1.60
2023-02-15T04:32:01.731Z,1.60
2023-02-15T04:34:28.787Z,1.60
2023-02-15T04:36:55.626Z,1.50
2023-02-15T04:39:22.565Z,1.50
2023-02-15T04:41:49.452Z,1.40
2023-02-15T04:44:16.607Z,1.50
2023-02-15T04:46:43.594Z,1.50
2023-02-15T04:49:10.566Z,1.50
2023-02-15T04:51:37.588Z,1.50
2023-02-15T04:54:04.563Z,1.50
2023-02-15T04:56:32.153Z,1.50
2023-02-15T04:58:59.013Z,1.40
2023-02-15T05:01:25.985Z,1.40
2023-02-15T05:03:52.949Z,1.40
2023-02-15T05:06:20.008Z,1.40
2023-02-15T05:08:46.851Z,1.40
2023-02-15T05:11:13.726Z,1.30
2023-02-15T05:13:41.384Z,1.20
2023-02-15T05:16:08.485Z,1.00
2023-02-15T05:18:35.377Z,0.90
2023-02-15T05:21:02.252Z,0.90
2023-02-15T05:23:29.136Z,0.90
2023-02-15T05:26:14.989Z,1.00
2023-02-15T05:28:41.857Z,1.00
2023-02-15T05:31:15.579Z,0.90
2023-02-15T05:33:43.330Z,0.90
2023-02-15T05:36:10.463Z,0.90
2023-02-15T05:38:38.495Z,1.00
2023-02-15T05:41:06.846Z,1.00
2023-02-15T05:43:34.306Z,1.10
2023-02-15T05:46:01.592Z,1.10
2023-02-15T05:48:29.679Z,0.90
2023-02-15T05:51:00.949Z,0.90
2023-02-15T05:53:29.966Z,0.80
2023-02-15T05:56:00.489Z,0.90
2023-02-15T05:58:30.693Z,0.90
2023-02-15T06:00:58.242Z,0.80
2023-02-15T06:03:26.744Z,0.80
2023-02-15T06:05:53.923Z,0.80
2023-02-15T06:08:21.569Z,2.10
2023-02-15T06:10:48.691Z,3.90
2023-02-15T06:13:15.789Z,5.40
2023-02-15T06:15:42.669Z,5.70
2023-02-15T06:18:10.055Z,5.10
2023-02-15T06:20:37.053Z,4.30
2023-02-15T06:23:03.929Z,3.80
2023-02-15T06:25:30.811Z,3.40
2023-02-15T06:27:57.705Z,2.90
2023-02-15T06:30:24.639Z,2.30
2023-02-15T06:32:51.759Z,1.80
2023-02-15T06:35:18.633Z,1.60
2023-02-15T06:37:47.763Z,1.30
2023-02-15T06:40:14.890Z,1.30
2023-02-15T06:42:42.917Z,1.30
2023-02-15T06:45:10.938Z,1.30
2023-02-15T06:47:38.232Z,1.30
2023-02-15T06:50:06.788Z,1.20
2023-02-15T06:52:33.676Z,1.20
2023-02-15T06:55:00.611Z,1.10
2023-02-15T06:57:27.565Z,1.00
2023-02-15T06:59:54.458Z,1.00
2023-02-15T07:02:21.325Z,1.00
2023-02-15T07:04:48.283Z,0.90
2023-02-15T07:07:15.174Z,0.90
2023-02-15T07:09:42.037Z,0.90
2023-02-15T07:12:29.395Z,0.90
2023-02-15T07:14:56.359Z,0.90
2023-02-15T07:17:38.800Z,0.90
2023-02-15T07:20:18.928Z,0.80
2023-02-15T07:22:46.592Z,0.80
2023-02-15T07:25:13.901Z,0.90
2023-02-15T07:27:41.238Z,0.90
2023-02-15T07:30:12.602Z,0.90
2023-02-15T07:32:59.627Z,0.90
2023-02-15T07:35:27.198Z,0.90
2023-02-15T07:37:55.015Z,1.00
2023-02-15T07:40:24.278Z,1.00
2023-02-15T07:42:54.160Z,1.20
2023-02-15T07:45:22.260Z,1.20
2023-02-15T07:47:49.164Z,1.30
2023-02-15T07:50:16.207Z,1.30
2023-02-15T07:52:43.159Z,1.40
2023-02-15T07:55:13.270Z,1.40
2023-02-15T07:57:47.378Z,1.50
2023-02-15T08:00:16.398Z,1.60
2023-02-15T08:02:48.576Z,1.60
2023-02-15T08:05:17.825Z,1.70
2023-02-15T08:07:44.759Z,1.80
2023-02-15T08:10:31.634Z,1.90
2023-02-15T08:12:58.514Z,2.00
2023-02-15T08:15:25.448Z,2.20
2023-02-15T08:17:52.342Z,2.30
2023-02-15T08:20:19.249Z,2.40
2023-02-15T08:22:46.139Z,2.50
2023-02-15T08:25:13.024Z,2.70
2023-02-15T08:27:39.999Z,2.80
2023-02-15T08:30:07.937Z,3.00
2023-02-15T08:32:34.860Z,3.20
2023-02-15T08:35:01.756Z,3.40
2023-02-15T08:37:28.686Z,3.50
2023-02-15T08:39:55.644Z,3.80
2023-02-15T08:42:22.523Z,3.90
2023-02-15T08:44:51.544Z,4.10
2023-02-15T08:47:18.430Z,4.20
2023-02-15T08:49:45.335Z,4.30
2023-02-15T08:52:12.268Z,4.50
2023-02-15T08:54:39.130Z,4.60
2023-02-15T08:57:07.898Z,4.60
2023-02-15T08:59:34.914Z,4.70
2023-02-15T09:02:02.533Z,4.90
2023-02-15T09:04:29.432Z,5.10
2023-02-15T09:06:56.437Z,5.30
2023-02-15T09:09:23.506Z,5.40
2023-02-15T09:11:57.657Z,5.50
2023-02-15T09:14:27.065Z,5.70
2023-02-15T09:16:54.788Z,5.90
2023-02-15T09:19:24.135Z,6.20
2023-02-15T09:21:51.271Z,6.40
2023-02-15T09:24:19.048Z,6.70
2023-02-15T09:26:48.776Z,6.90
2023-02-15T09:29:17.553Z,7.10
2023-02-15T09:31:49.729Z,7.30
2023-02-15T09:34:20.173Z,7.60
2023-02-15T09:36:47.588Z,7.80
2023-02-15T09:39:24.760Z,7.90
2023-02-15T09:42:25.899Z,7.90
2023-02-15T09:45:13.971Z,8.00
2023-02-15T09:48:33.803Z,8.20
2023-02-15T09:51:34.721Z,8.30
2023-02-15T09:54:34.736Z,8.50
2023-02-15T09:57:21.333Z,8.60
2023-02-15T10:00:25.285Z,8.70
2023-02-15T10:03:06.156Z,8.80
2023-02-15T10:06:06.972Z,9.10
2023-02-15T10:08:58.636Z,9.30
2023-02-15T10:11:44.670Z,9.50
2023-02-15T10:14:38.866Z,9.70
2023-02-15T10:18:03.636Z,10.00
2023-02-15T10:21:21.354Z,10.20
2023-02-15T10:24:17.105Z,10.30
2023-02-15T10:26:49.223Z,10.30
2023-02-15T10:29:38.020Z,10.50
2023-02-15T10:32:24.381Z,10.60
2023-02-15T10:35:09.631Z,10.70
2023-02-15T10:38:00.387Z,10.90
2023-02-15T10:40:52.708Z,11.00
2023-02-15T10:43:55.385Z,11.10
2023-02-15T10:47:20.093Z,11.30
2023-02-15T10:49:53.750Z,11.60
2023-02-15T10:53:05.391Z,11.90
2023-02-15T10:55:57.860Z,12.20
2023-02-15T10:58:50.191Z,12.30
2023-02-15T11:01:55.851Z,12.50
2023-02-15T11:05:12.867Z,12.60
2023-02-15T11:07:44.837Z,12.80
2023-02-15T11:10:35.048Z,12.90
2023-02-15T11:13:16.076Z,12.90
2023-02-15T11:15:54.305Z,12.90
2023-02-15T11:18:37.777Z,12.80
2023-02-15T11:21:24.304Z,12.90
2023-02-15T11:23:53.282Z,13.00
2023-02-15T11:26:45.539Z,13.10
2023-02-15T11:29:29.314Z,13.30
2023-02-15T11:32:01.074Z,13.20
2023-02-15T11:35:05.495Z,13.20
2023-02-15T11:37:49.797Z,13.20
2023-02-15T11:40:31.599Z,13.30
2023-02-15T11:43:06.618Z,13.60
2023-02-15T11:45:35.555Z,13.70
2023-02-15T11:48:10.571Z,13.70
2023-02-15T11:50:38.105Z,13.70
2023-02-15T11:53:28.930Z,13.70
2023-02-15T11:55:56.837Z,13.40
2023-02-15T11:58:43.000Z,13.30
2023-02-15T12:01:31.499Z,13.30
2023-02-15T12:04:23.818Z,13.50
2023-02-15T12:07:12.670Z,13.70
2023-02-15T12:10:15.046Z,14.00
2023-02-15T12:12:41.864Z,14.20
2023-02-15T12:15:11.617Z,14.40
2023-02-15T12:17:42.204Z,14.60
2023-02-15T12:20:15.198Z,14.50
2023-02-15T12:22:53.058Z,14.70
2023-02-15T12:25:56.865Z,14.80
2023-02-15T12:28:45.530Z,14.80
2023-02-15T12:31:28.133Z,14.70
2023-02-15T12:33:59.097Z,14.60
2023-02-15T12:36:45.388Z,14.60
2023-02-15T12:39:21.524Z,14.60
2023-02-15T12:42:05.506Z,14.80
2023-02-15T12:44:38.052Z,14.90
2023-02-15T12:47:20.584Z,15.10
2023-02-15T12:50:34.665Z,15.20
2023-02-15T12:53:15.064Z,15.20
2023-02-15T12:56:02.063Z,15.30
2023-02-15T12:58:36.771Z,15.20
2023-02-15T13:01:22.223Z,15.20
2023-02-15T13:03:56.933Z,15.30
2023-02-15T13:06:24.614Z,15.10
2023-02-15T13:08:55.209Z,14.90
2023-02-15T13:11:38.774Z,14.50
2023-02-15T13:14:23.457Z,14.30
2023-02-15T13:16:53.340Z,14.10
2023-02-15T13:19:37.233Z,14.00
2023-02-15T13:22:13.687Z,14.20
2023-02-15T13:24:46.572Z,14.60
2023-02-15T13:27:19.089Z,14.70
2023-02-15T13:29:51.365Z,14.70
2023-02-15T13:32:41.749Z,14.30
2023-02-15T13:35:17.313Z,14.20
2023-02-15T13:38:03.967Z,14.40
2023-02-15T13:40:52.321Z,14.50
2023-02-15T13:43:57.597Z,14.50
2023-02-15T13:46:56.123Z,14.60
2023-02-15T13:50:18.349Z,14.40
2023-02-15T13:53:07.013Z,14.30
2023-02-15T13:55:45.683Z,14.20
2023-02-15T13:58:44.127Z,14.30
2023-02-15T14:01:22.678Z,14.20
2023-02-15T14:04:17.130Z,14.20
2023-02-15T14:07:14.831Z,14.10
2023-02-15T14:10:01.298Z,14.00
2023-02-15T14:12:53.364Z,14.20
2023-02-15T14:15:46.557Z,14.60
2023-02-15T14:18:41.229Z,14.90
2023-02-15T14:21:28.005Z,15.10
2023-02-15T14:24:16.764Z,15.30
2023-02-15T14:26:51.662Z,15.60
2023-02-15T14:29:45.016Z,15.80
2023-02-15T14:32:40.292Z,15.70
2023-02-15T14:35:20.398Z,15.70
2023-02-15T14:38:16.343Z,15.60
2023-02-15T14:41:01.943Z,15.50
2023-02-15T14:44:10.501Z,15.40
2023-02-15T14:46:37.290Z,15.60
2023-02-15T14:49:23.369Z,15.70
2023-02-15T14:51:51.056Z,15.60
2023-02-15T14:54:18.033Z,15.50
2023-02-15T14:56:46.317Z,15.70
2023-02-15T14:59:17.231Z,15.70
2023-02-15T15:01:59.831Z,15.60
2023-02-15T15:04:32.279Z,15.40
2023-02-15T15:07:13.059Z,15.30
2023-02-15T15:09:42.660Z,15.40
2023-02-15T15:12:36.529Z,15.40
2023-02-15T15:15:04.984Z,15.40
2023-02-15T15:17:34.962Z,15.40
2023-02-15T15:20:15.258Z,15.30
2023-02-15T15:22:44.058Z,15.30
2023-02-15T15:25:50.972Z,15.30
2023-02-15T15:28:36.186Z,15.20
2023-02-15T15:31:44.987Z,15.00
2023-02-15T15:35:11.259Z,14.90
2023-02-15T15:38:08.739Z,14.70
2023-02-15T15:41:18.507Z,14.40
2023-02-15T15:44:40.521Z,14.20
2023-02-15T15:47:44.752Z,13.90
2023-02-15T15:50:17.424Z,13.60
2023-02-15T15:52:52.400Z,13.50
2023-02-15T15:55:23.327Z,13.30
2023-02-15T15:57:54.771Z,13.20
2023-02-15T16:00:27.626Z,13.00
2023-02-15T16:02:56.534Z,12.80
2023-02-15T16:05:23.746Z,12.60
2023-02-15T16:07:51.259Z,12.60
2023-02-15T16:10:29.260Z,12.50
2023-02-15T16:12:56.748Z,12.40
2023-02-15T16:15:27.785Z,12.30
2023-02-15T16:17:58.753Z,12.30
2023-02-15T16:20:37.842Z,12.30
2023-02-15T16:23:36.752Z,12.20
2023-02-15T16:26:52.666Z,12.10
2023-02-15T16:29:30.802Z,12.00
2023-02-15T16:32:21.341Z,11.80
2023-02-15T16:35:02.997Z,11.80
2023-02-15T16:37:35.032Z,11.70
2023-02-15T16:40:02.425Z,11.60
2023-02-15T16:42:29.389Z,11.50
2023-02-15T16:45:19.608Z,11.50
2023-02-15T16:47:51.718Z,11.40
2023-02-15T16:50:35.445Z,11.40
2023-02-15T16:53:04.457Z,11.20
2023-02-15T16:55:43.358Z,11.20
2023-02-15T16:58:17.256Z,11.10
2023-02-15T17:00:45.132Z,11.00
2023-02-15T17:03:15.136Z,10.90
2023-02-15T17:05:52.287Z,10.90
2023-02-15T17:08:35.434Z,10.80
2023-02-15T17:11:09.306Z,10.70
2023-02-15T17:13:36.199Z,10.70
2023-02-15T17:16:04.082Z,10.60
2023-02-15T17:18:59.313Z,10.50
2023-02-15T17:21:38.758Z,10.40
2023-02-15T17:24:05.814Z,10.30
2023-02-15T17:26:37.883Z,10.30
2023-02-15T17:29:24.650Z,10.30
2023-02-15T17:31:55.124Z,10.30
2023-02-15T17:35:11.884Z,10.30
2023-02-15T17:37:38.674Z,10.30
2023-02-15T17:40:31.159Z,10.20
2023-02-15T17:42:58.171Z,10.20
2023-02-15T17:45:35.320Z,10.20
2023-02-15T17:48:05.855Z,10.20
2023-02-15T17:50:34.018Z,10.10
2023-02-15T17:53:02.065Z,10.00
2023-02-15T17:55:44.104Z,9.90
2023-02-15T17:58:17.176Z,9.80
2023-02-15T18:01:06.786Z,9.80
2023-02-15T18:04:08.742Z,9.80
2023-02-15T18:06:57.547Z,9.80
2023-02-15T18:09:44.291Z,9.80
2023-02-15T18:12:31.483Z,9.80
2023-02-15T18:14:59.560Z,9.80
2023-02-15T18:17:38.654Z,9.80
2023-02-15T18:20:28.229Z,9.70
2023-02-15T18:22:55.149Z,9.70
2023-02-15T18:25:25.470Z,9.70
2023-02-15T18:27:55.126Z,9.60
2023-02-15T18:30:26.999Z,9.50
2023-02-15T18:32:57.238Z,9.50
2023-02-15T18:35:28.028Z,9.50
2023-02-15T18:37:55.310Z,9.50
2023-02-15T18:40:26.786Z,9.50
2023-02-15T18:42:54.182Z,9.40
2023-02-15T18:45:33.069Z,9.40
2023-02-15T18:48:01.316Z,9.40
2023-02-15T18:50:34.084Z,9.30
2023-02-15T18:53:04.215Z,9.30
2023-02-15T18:55:32.984Z,9.20
2023-02-15T18:58:01.265Z,9.10
2023-02-15T19:00:28.864Z,9.00
2023-02-15T19:02:57.240Z,9.00
2023-02-15T19:05:27.472Z,8.90
2023-02-15T19:07:55.462Z,8.60
2023-02-15T19:10:26.073Z,8.40
2023-02-15T19:12:54.385Z,8.40
2023-02-15T19:15:32.593Z,8.40
2023-02-15T19:17:59.766Z,8.30
2023-02-15T19:20:37.685Z,8.30
2023-02-15T19:23:12.120Z,8.30
2023-02-15T19:25:40.123Z,8.30
2023-02-15T19:28:27.604Z,8.20
2023-02-15T19:30:54.579Z,8.10
2023-02-15T19:33:23.618Z,8.10
2023-02-15T19:35:55.472Z,8.10
2023-02-15T19:38:28.037Z,8.10
2023-02-15T19:41:04.277Z,8.00
2023-02-15T19:43:31.301Z,8.00
2023-02-15T19:45:58.269Z,8.00
2023-02-15T19:48:25.200Z,8.00
2023-02-15T19:50:57.022Z,7.90
2023-02-15T19:53:26.984Z,7.90
2023-02-15T19:55:54.534Z,7.90
2023-02-15T19:58:22.090Z,7.90
2023-02-15T20:00:50.684Z,7.80
2023-02-15T20:03:18.499Z,7.80
2023-02-15T20:05:45.630Z,7.70
2023-02-15T20:08:22.511Z,7.70
2023-02-15T20:10:49.925Z,7.60
2023-02-15T20:13:19.249Z,7.60
2023-02-15T20:15:50.722Z,7.50
2023-02-15T20:18:19.242Z,7.50
2023-02-15T20:20:50.797Z,7.50
2023-02-15T20:23:22.637Z,7.60
2023-02-15T20:25:50.674Z,7.60
2023-02-15T20:28:24.593Z,7.60
2023-02-15T20:30:52.519Z,7.60
2023-02-15T20:33:21.101Z,7.60
2023-02-15T20:35:49.308Z,7.70
2023-02-15T20:38:29.340Z,7.70
2023-02-15T20:41:17.773Z,7.70
2023-02-15T20:43:45.005Z,7.70
2023-02-15T20:46:11.956Z,7.70
2023-02-15T20:48:38.850Z,7.70
2023-02-15T20:51:09.548Z,7.80
2023-02-15T20:53:36.664Z,7.80
2023-02-15T20:56:03.889Z,7.80
2023-02-15T20:58:31.033Z,7.70
2023-02-15T21:00:59.072Z,7.70
2023-02-15T21:03:30.857Z,7.70
2023-02-15T21:05:59.266Z,7.70
2023-02-15T21:08:26.567Z,7.60
2023-02-15T21:10:54.651Z,7.60
2023-02-15T21:13:31.460Z,7.60
2023-02-15T21:15:59.559Z,7.60
2023-02-15T21:18:42.514Z,7.60
2023-02-15T21:21:23.661Z,7.50
2023-02-15T21:23:52.438Z,7.50
2023-02-15T21:26:22.192Z,7.50
2023-02-15T21:28:50.375Z,7.40
2023-02-15T21:31:25.161Z,7.40
2023-02-15T21:33:52.672Z,7.40
2023-02-15T21:36:23.886Z,7.40
2023-02-15T21:38:51.174Z,7.40
2023-02-15T21:41:42.346Z,7.40
2023-02-15T21:44:40.722Z,7.30
2023-02-15T21:47:44.386Z,7.30
2023-02-15T21:50:39.331Z,7.20
2023-02-15T21:53:11.274Z,7.20
2023-02-15T21:55:38.338Z,7.10
2023-02-15T21:58:06.329Z,7.10
2023-02-15T22:00:33.901Z,7.10
2023-02-15T22:03:01.962Z,7.10
2023-02-15T22:05:32.128Z,7.10
2023-02-15T22:07:59.248Z,7.00
2023-02-15T22:10:32.207Z,7.00
2023-02-15T22:13:03.142Z,7.00
2023-02-15T22:15:39.175Z,7.00
2023-02-15T22:18:06.508Z,6.90
2023-02-15T22:20:33.488Z,6.90
2023-02-15T22:23:00.432Z,6.90
2023-02-15T22:25:27.663Z,6.80
2023-02-15T22:27:55.160Z,6.80
2023-02-15T22:30:26.872Z,6.80
2023-02-15T22:32:55.742Z,6.70
2023-02-15T22:35:29.925Z,6.70
2023-02-15T22:37:57.027Z,6.70
2023-02-15T22:40:32.860Z,6.70
2023-02-15T22:43:05.838Z,6.70
2023-02-15T22:45:35.617Z,6.60
2023-02-15T22:48:02.834Z,6.60
2023-02-15T22:50:32.604Z,6.60
2023-02-15T22:53:03.874Z,6.60
2023-02-15T22:55:36.571Z,6.60
2023-02-15T22:58:04.425Z,6.60
2023-02-15T23:00:40.234Z,6.60
2023-02-15T23:03:33.515Z,6.70
2023-02-15T23:06:00.552Z,6.70
2023-02-15T23:08:27.498Z,6.60
2023-02-15T23:10:56.756Z,6.60
2023-02-15T23:13:32.196Z,6.60
2023-02-15T23:16:02.207Z,6.60
2023-02-15T23:18:33.500Z,6.50
2023-02-15T23:21:24.089Z,6.50
2023-02-15T23:23:57.680Z,6.50
2023-02-15T23:26:31.211Z,6.50
2023-02-15T23:29:00.959Z,6.50
2023-02-15T23:31:33.144Z,6.60
2023-02-15T23:34:04.596Z,6.60
2023-02-15T23:36:36.307Z,6.60
2023-02-15T23:39:37.075Z,6.60
2023-02-15T23:42:09.937Z,6.70
2023-02-15T23:44:37.888Z,6.70
2023-02-15T23:47:06.210Z,6.70
2023-02-15T23:49:33.124Z,6.70
2023-02-15T23:52:00.877Z,6.70
2023-02-15T23:54:27.797Z,6.70
2023-02-15T23:57:00.791Z,6.70
2023-02-15T23:59:30.438Z,6.70
